sensor_id;sensor_type;location;lat;lon;timestamp;pressure;altitude;pressure_sealevel;temperature;humidity
48041;BME280;33815;48.386;11.738;2023-04-03T00:00:52;97088.91;;;1.42;100.00
48041;BME280;33815;48.386;11.738;2023-04-03T00:03:18;97104.06;;;1.47;100.00
48041;BME280;33815;48.386;11.738;2023-04-03T00:05:43;97111.19;;;1.42;100.00
48041;BME280;33815;48.386;11.738;2023-04-03T00:08:08;97107.44;;;1.31;100.00
48041;BME280;33815;48.386;11.738;2023-04-03T00:10:35;97116.00;;;1.48;100.00
48041;BME280;33815;48.386;11.738;2023-04-03T00:13:00;97099.91;;;1.28;100.00
48041;BME280;33815;48.386;11.738;2023-04-03T00:15:26;97115.03;;;1.50;100.00
48041;BME280;33815;48.386;11.738;2023-04-03T00:17:51;97106.88;;;1.42;100.00
48041;BME280;33815;48.386;11.738;2023-04-03T00:20:16;97117.75;;;1.47;100.00
48041;BME280;33815;48.386;11.738;2023-04-03T00:22:41;97094.84;;;1.27;100.00
48041;BME280;33815;48.386;11.738;2023-04-03T00:25:07;97112.41;;;1.34;100.00
48041;BME280;33815;48.386;11.738;2023-04-03T00:27:32;97116.47;;;1.39;100.00
48041;BME280;33815;48.386;11.738;2023-04-03T00:29:58;97108.03;;;1.36;100.00
48041;BME280;33815;48.386;11.738;2023-04-03T00:32:23;97116.91;;;1.47;100.00
48041;BME280;33815;48.386;11.738;2023-04-03T00:34:48;97103.81;;;1.35;100.00
48041;BME280;33815;48.386;11.738;2023-04-03T00:37:14;97108.22;;;1.33;100.00
48041;BME280;33815;48.386;11.738;2023-04-03T00:39:39;97109.63;;;1.39;100.00
48041;BME280;33815;48.386;11.738;2023-04-03T00:42:05;97075.41;;;1.05;100.00
48041;BME280;33815;48.386;11.738;2023-04-03T00:46:59;97098.41;;;1.40;100.00
48041;BME280;33815;48.386;11.738;2023-04-03T00:49:26;97118.22;;;1.38;100.00
48041;BME280;33815;48.386;11.738;2023-04-03T00:51:51;97105.78;;;1.30;100.00
48041;BME280;33815;48.386;11.738;2023-04-03T00:54:17;97067.13;;;1.00;100.00
48041;BME280;33815;48.386;11.738;2023-04-03T00:56:43;97113.91;;;1.23;100.00
48041;BME280;33815;48.386;11.738;2023-04-03T00:59:12;97073.19;;;1.15;100.00
48041;BME280;33815;48.386;11.738;2023-04-03T01:01:40;97111.44;;;1.37;100.00
48041;BME280;33815;48.386;11.738;2023-04-03T01:04:06;97100.53;;;1.49;100.00
48041;BME280;33815;48.386;11.738;2023-04-03T01:06:36;97093.19;;;1.26;100.00
48041;BME280;33815;48.386;11.738;2023-04-03T01:09:02;97072.53;;;1.11;100.00
48041;BME280;33815;48.386;11.738;2023-04-03T01:11:28;97109.28;;;1.29;100.00
48041;BME280;33815;48.386;11.738;2023-04-03T01:13:53;97106.84;;;1.26;100.00
48041;BME280;33815;48.386;11.738;2023-04-03T01:16:19;97100.72;;;1.29;100.00
48041;BME280;33815;48.386;11.738;2023-04-03T01:18:45;97110.09;;;1.30;100.00
48041;BME280;33815;48.386;11.738;2023-04-03T01:26:22;97112.59;;;1.31;100.00
48041;BME280;33815;48.386;11.738;2023-04-03T01:28:47;97110.56;;;1.20;100.00
48041;BME280;33815;48.386;11.738;2023-04-03T01:31:20;97109.53;;;1.41;100.00
48041;BME280;33815;48.386;11.738;2023-04-03T01:33:47;97087.41;;;1.22;100.00
48041;BME280;33815;48.386;11.738;2023-04-03T01:36:19;97108.13;;;1.35;100.00
48041;BME280;33815;48.386;11.738;2023-04-03T01:38:45;97115.56;;;1.24;100.00
48041;BME280;33815;48.386;11.738;2023-04-03T01:41:11;97113.72;;;1.26;100.00
48041;BME280;33815;48.386;11.738;2023-04-03T01:43:36;97118.03;;;1.25;100.00
48041;BME280;33815;48.386;11.738;2023-04-03T01:46:01;97110.06;;;1.14;100.00
48041;BME280;33815;48.386;11.738;2023-04-03T01:48:27;97115.06;;;1.33;100.00
48041;BME280;33815;48.386;11.738;2023-04-03T01:50:52;97119.56;;;1.29;100.00
48041;BME280;33815;48.386;11.738;2023-04-03T01:53:18;97125.75;;;1.25;100.00
48041;BME280;33815;48.386;11.738;2023-04-03T01:55:43;97099.63;;;1.17;100.00
48041;BME280;33815;48.386;11.738;2023-04-03T01:58:09;97116.47;;;1.23;100.00
48041;BME280;33815;48.386;11.738;2023-04-03T02:00:34;97092.31;;;1.09;100.00
48041;BME280;33815;48.386;11.738;2023-04-03T02:02:59;97121.88;;;1.34;100.00
48041;BME280;33815;48.386;11.738;2023-04-03T02:05:25;97117.19;;;1.25;100.00
48041;BME280;33815;48.386;11.738;2023-04-03T02:07:50;97112.91;;;1.25;100.00
48041;BME280;33815;48.386;11.738;2023-04-03T02:10:16;97121.28;;;1.29;100.00
48041;BME280;33815;48.386;11.738;2023-04-03T02:12:41;97116.63;;;1.19;100.00
48041;BME280;33815;48.386;11.738;2023-04-03T02:15:07;97114.75;;;1.39;100.00
48041;BME280;33815;48.386;11.738;2023-04-03T02:17:32;97077.22;;;1.03;100.00
48041;BME280;33815;48.386;11.738;2023-04-03T02:19:57;97119.19;;;1.19;100.00
48041;BME280;33815;48.386;11.738;2023-04-03T02:22:23;97113.97;;;1.21;100.00
48041;BME280;33815;48.386;11.738;2023-04-03T02:24:48;97107.41;;;1.15;100.00
48041;BME280;33815;48.386;11.738;2023-04-03T02:27:13;97105.75;;;1.14;100.00
48041;BME280;33815;48.386;11.738;2023-04-03T02:29:39;97108.25;;;1.16;100.00
48041;BME280;33815;48.386;11.738;2023-04-03T02:32:05;97111.06;;;1.27;100.00
48041;BME280;33815;48.386;11.738;2023-04-03T02:34:30;97103.09;;;1.16;100.00
48041;BME280;33815;48.386;11.738;2023-04-03T02:36:55;97100.38;;;1.19;100.00
48041;BME280;33815;48.386;11.738;2023-04-03T02:39:21;97096.97;;;1.18;100.00
48041;BME280;33815;48.386;11.738;2023-04-03T02:41:46;97112.75;;;1.28;100.00
48041;BME280;33815;48.386;11.738;2023-04-03T02:44:11;97097.25;;;1.30;100.00
48041;BME280;33815;48.386;11.738;2023-04-03T02:46:37;97082.44;;;1.01;100.00
48041;BME280;33815;48.386;11.738;2023-04-03T02:49:02;97107.94;;;1.22;100.00
48041;BME280;33815;48.386;11.738;2023-04-03T02:51:28;97067.59;;;0.91;100.00
48041;BME280;33815;48.386;11.738;2023-04-03T02:53:53;97105.13;;;1.27;100.00
48041;BME280;33815;48.386;11.738;2023-04-03T02:56:18;97102.28;;;1.15;100.00
48041;BME280;33815;48.386;11.738;2023-04-03T02:58:45;97109.06;;;1.16;100.00
48041;BME280;33815;48.386;11.738;2023-04-03T03:01:11;97107.59;;;1.12;100.00
48041;BME280;33815;48.386;11.738;2023-04-03T03:03:37;97117.16;;;1.09;100.00
48041;BME280;33815;48.386;11.738;2023-04-03T03:06:08;97096.78;;;1.06;100.00
48041;BME280;33815;48.386;11.738;2023-04-03T03:08:34;97102.91;;;1.03;100.00
48041;BME280;33815;48.386;11.738;2023-04-03T03:11:00;97115.28;;;1.12;100.00
48041;BME280;33815;48.386;11.738;2023-04-03T03:13:25;97111.13;;;1.10;100.00
48041;BME280;33815;48.386;11.738;2023-04-03T03:15:51;97120.91;;;1.19;100.00
48041;BME280;33815;48.386;11.738;2023-04-03T03:18:16;97117.91;;;1.11;100.00
48041;BME280;33815;48.386;11.738;2023-04-03T03:20:41;97111.03;;;1.11;100.00
48041;BME280;33815;48.386;11.738;2023-04-03T03:23:07;97111.63;;;1.16;100.00
48041;BME280;33815;48.386;11.738;2023-04-03T03:25:32;97102.19;;;1.17;100.00
48041;BME280;33815;48.386;11.738;2023-04-03T03:27:57;97103.09;;;1.16;100.00
48041;BME280;33815;48.386;11.738;2023-04-03T03:30:22;97101.94;;;1.06;100.00
48041;BME280;33815;48.386;11.738;2023-04-03T03:32:48;97097.22;;;1.14;100.00
48041;BME280;33815;48.386;11.738;2023-04-03T03:35:13;97101.03;;;1.07;100.00
48041;BME280;33815;48.386;11.738;2023-04-03T03:37:38;97075.69;;;0.83;100.00
48041;BME280;33815;48.386;11.738;2023-04-03T03:40:04;97057.13;;;0.78;100.00
48041;BME280;33815;48.386;11.738;2023-04-03T03:42:30;97092.13;;;0.96;100.00
48041;BME280;33815;48.386;11.738;2023-04-03T03:44:55;97105.94;;;0.94;100.00
48041;BME280;33815;48.386;11.738;2023-04-03T03:47:20;97099.22;;;0.91;100.00
48041;BME280;33815;48.386;11.738;2023-04-03T03:49:46;97110.25;;;0.93;100.00
48041;BME280;33815;48.386;11.738;2023-04-03T03:52:11;97085.59;;;0.73;100.00
48041;BME280;33815;48.386;11.738;2023-04-03T03:54:37;97116.97;;;0.96;100.00
48041;BME280;33815;48.386;11.738;2023-04-03T03:57:03;97118.31;;;1.03;100.00
48041;BME280;33815;48.386;11.738;2023-04-03T03:59:28;97117.13;;;0.93;100.00
48041;BME280;33815;48.386;11.738;2023-04-03T04:01:53;97111.47;;;0.86;100.00
48041;BME280;33815;48.386;11.738;2023-04-03T04:04:19;97123.13;;;1.09;100.00
48041;BME280;33815;48.386;11.738;2023-04-03T04:06:44;97119.81;;;1.07;100.00
48041;BME280;33815;48.386;11.738;2023-04-03T04:09:10;97123.53;;;1.01;100.00
48041;BME280;33815;48.386;11.738;2023-04-03T04:11:35;97120.09;;;1.01;100.00
48041;BME280;33815;48.386;11.738;2023-04-03T04:14:00;97109.19;;;0.97;100.00
48041;BME280;33815;48.386;11.738;2023-04-03T04:16:26;97121.78;;;1.02;100.00
48041;BME280;33815;48.386;11.738;2023-04-03T04:18:51;97082.63;;;0.81;100.00
48041;BME280;33815;48.386;11.738;2023-04-03T04:21:16;97112.34;;;1.02;100.00
48041;BME280;33815;48.386;11.738;2023-04-03T04:23:41;97112.19;;;0.88;100.00
48041;BME280;33815;48.386;11.738;2023-04-03T04:26:07;97113.72;;;1.26;100.00
48041;BME280;33815;48.386;11.738;2023-04-03T04:28:32;97116.13;;;0.95;100.00
48041;BME280;33815;48.386;11.738;2023-04-03T04:30:57;97121.94;;;0.99;100.00
48041;BME280;33815;48.386;11.738;2023-04-03T04:33:22;97122.19;;;0.94;100.00
48041;BME280;33815;48.386;11.738;2023-04-03T04:35:48;97107.00;;;0.90;100.00
48041;BME280;33815;48.386;11.738;2023-04-03T04:38:13;97073.13;;;0.65;100.00
48041;BME280;33815;48.386;11.738;2023-04-03T04:40:39;97116.44;;;0.89;100.00
48041;BME280;33815;48.386;11.738;2023-04-03T04:43:05;97068.59;;;0.53;100.00
48041;BME280;33815;48.386;11.738;2023-04-03T04:45:31;97136.41;;;1.17;100.00
48041;BME280;33815;48.386;11.738;2023-04-03T04:47:56;97133.88;;;1.00;100.00
48041;BME280;33815;48.386;11.738;2023-04-03T04:50:22;97101.81;;;0.74;100.00
48041;BME280;33815;48.386;11.738;2023-04-03T04:52:47;97141.03;;;0.93;100.00
48041;BME280;33815;48.386;11.738;2023-04-03T04:55:12;97113.03;;;0.71;100.00
48041;BME280;33815;48.386;11.738;2023-04-03T04:57:38;97142.84;;;0.91;100.00
48041;BME280;33815;48.386;11.738;2023-04-03T05:00:04;97131.84;;;0.89;100.00
48041;BME280;33815;48.386;11.738;2023-04-03T05:02:29;97151.53;;;0.89;100.00
48041;BME280;33815;48.386;11.738;2023-04-03T05:04:56;97124.75;;;0.77;100.00
48041;BME280;33815;48.386;11.738;2023-04-03T05:07:21;97101.44;;;0.64;100.00
48041;BME280;33815;48.386;11.738;2023-04-03T05:09:46;97149.63;;;0.92;100.00
48041;BME280;33815;48.386;11.738;2023-04-03T05:12:12;97144.44;;;0.94;100.00
48041;BME280;33815;48.386;11.738;2023-04-03T05:14:37;97141.66;;;0.98;100.00
48041;BME280;33815;48.386;11.738;2023-04-03T05:17:02;97138.16;;;0.99;100.00
48041;BME280;33815;48.386;11.738;2023-04-03T05:19:28;97100.91;;;0.75;100.00
48041;BME280;33815;48.386;11.738;2023-04-03T05:21:53;97148.28;;;1.02;100.00
48041;BME280;33815;48.386;11.738;2023-04-03T05:24:18;97110.03;;;0.80;100.00
48041;BME280;33815;48.386;11.738;2023-04-03T05:26:44;97094.09;;;0.74;100.00
48041;BME280;33815;48.386;11.738;2023-04-03T05:29:09;97142.38;;;1.00;100.00
48041;BME280;33815;48.386;11.738;2023-04-03T05:31:35;97152.50;;;1.03;100.00
48041;BME280;33815;48.386;11.738;2023-04-03T05:34:01;97147.28;;;1.23;100.00
48041;BME280;33815;48.386;11.738;2023-04-03T05:36:26;97144.09;;;1.35;100.00
48041;BME280;33815;48.386;11.738;2023-04-03T05:38:52;97105.94;;;0.94;100.00
48041;BME280;33815;48.386;11.738;2023-04-03T05:41:18;97135.16;;;1.25;100.00
48041;BME280;33815;48.386;11.738;2023-04-03T05:43:43;97155.84;;;1.39;100.00
48041;BME280;33815;48.386;11.738;2023-04-03T05:46:13;97136.38;;;1.35;100.00
48041;BME280;33815;48.386;11.738;2023-04-03T05:48:39;97151.47;;;1.41;100.00
48041;BME280;33815;48.386;11.738;2023-04-03T05:51:05;97152.88;;;1.47;100.00
48041;BME280;33815;48.386;11.738;2023-04-03T05:53:33;97152.97;;;1.61;100.00
48041;BME280;33815;48.386;11.738;2023-04-03T05:56:00;97145.13;;;1.64;100.00
48041;BME280;33815;48.386;11.738;2023-04-03T05:58:25;97152.44;;;1.72;100.00
48041;BME280;33815;48.386;11.738;2023-04-03T06:00:51;97140.09;;;1.63;100.00
48041;BME280;33815;48.386;11.738;2023-04-03T06:03:16;97156.50;;;1.92;100.00
48041;BME280;33815;48.386;11.738;2023-04-03T06:05:42;97146.47;;;1.71;100.00
48041;BME280;33815;48.386;11.738;2023-04-03T06:08:07;97143.81;;;1.89;100.00
48041;BME280;33815;48.386;11.738;2023-04-03T06:10:34;97156.44;;;1.94;100.00
48041;BME280;33815;48.386;11.738;2023-04-03T06:13:00;97164.72;;;1.99;100.00
48041;BME280;33815;48.386;11.738;2023-04-03T06:15:26;97148.63;;;2.11;100.00
48041;BME280;33815;48.386;11.738;2023-04-03T06:17:51;97153.28;;;2.04;100.00
48041;BME280;33815;48.386;11.738;2023-04-03T06:20:16;97163.88;;;2.14;100.00
48041;BME280;33815;48.386;11.738;2023-04-03T06:22:41;97158.56;;;2.17;100.00
48041;BME280;33815;48.386;11.738;2023-04-03T06:25:07;97161.72;;;2.22;100.00
48041;BME280;33815;48.386;11.738;2023-04-03T06:27:33;97136.69;;;2.26;99.63
48041;BME280;33815;48.386;11.738;2023-04-03T06:29:58;97169.00;;;2.46;99.63
48041;BME280;33815;48.386;11.738;2023-04-03T06:32:23;97169.69;;;2.50;100.00
48041;BME280;33815;48.386;11.738;2023-04-03T06:34:49;97177.19;;;2.69;100.00
48041;BME280;33815;48.386;11.738;2023-04-03T06:37:19;97135.75;;;2.43;97.07
48041;BME280;33815;48.386;11.738;2023-04-03T06:39:45;97167.88;;;2.66;98.80
48041;BME280;33815;48.386;11.738;2023-04-03T06:42:11;97174.69;;;2.67;100.00
48041;BME280;33815;48.386;11.738;2023-04-03T06:44:36;97170.94;;;2.73;100.00
48041;BME280;33815;48.386;11.738;2023-04-03T06:47:02;97171.81;;;2.88;96.88
48041;BME280;33815;48.386;11.738;2023-04-03T06:49:27;97180.09;;;2.93;97.79
48041;BME280;33815;48.386;11.738;2023-04-03T06:51:53;97173.16;;;3.09;97.74
48041;BME280;33815;48.386;11.738;2023-04-03T06:54:19;97164.59;;;3.09;97.39
48041;BME280;33815;48.386;11.738;2023-04-03T06:56:44;97173.44;;;3.19;96.46
48041;BME280;33815;48.386;11.738;2023-04-03T06:59:12;97178.41;;;3.22;96.80
48041;BME280;33815;48.386;11.738;2023-04-03T07:01:39;97170.78;;;3.21;97.34
48041;BME280;33815;48.386;11.738;2023-04-03T07:04:04;97171.66;;;3.05;94.87
48041;BME280;33815;48.386;11.738;2023-04-03T07:06:30;97164.91;;;3.33;94.91
48041;BME280;33815;48.386;11.738;2023-04-03T07:08:57;97184.81;;;3.46;93.26
48041;BME280;33815;48.386;11.738;2023-04-03T07:11:23;97159.28;;;3.26;91.71
48041;BME280;33815;48.386;11.738;2023-04-03T07:13:49;97190.53;;;3.51;93.46
48041;BME280;33815;48.386;11.738;2023-04-03T07:16:14;97195.94;;;3.46;94.68
48041;BME280;33815;48.386;11.738;2023-04-03T07:18:40;97198.69;;;3.57;95.38
48041;BME280;33815;48.386;11.738;2023-04-03T07:21:06;97208.22;;;3.86;90.41
48041;BME280;33815;48.386;11.738;2023-04-03T07:23:32;97204.41;;;3.77;90.76
48041;BME280;33815;48.386;11.738;2023-04-03T07:25:57;97202.19;;;3.85;91.28
48041;BME280;33815;48.386;11.738;2023-04-03T07:28:23;97210.31;;;3.79;90.45
48041;BME280;33815;48.386;11.738;2023-04-03T07:30:53;97212.50;;;4.00;89.53
48041;BME280;33815;48.386;11.738;2023-04-03T07:33:21;97217.66;;;4.00;89.32
48041;BME280;33815;48.386;11.738;2023-04-03T07:35:48;97177.00;;;3.76;89.11
48041;BME280;33815;48.386;11.738;2023-04-03T07:38:13;97209.66;;;4.04;86.07
48041;BME280;33815;48.386;11.738;2023-04-03T07:40:39;97218.69;;;3.97;87.47
48041;BME280;33815;48.386;11.738;2023-04-03T07:43:05;97213.44;;;3.99;89.81
48041;BME280;33815;48.386;11.738;2023-04-03T07:45:32;97217.63;;;4.28;87.23
48041;BME280;33815;48.386;11.738;2023-04-03T07:48:00;97220.44;;;4.11;87.72
48041;BME280;33815;48.386;11.738;2023-04-03T07:50:26;97221.25;;;4.11;87.99
48041;BME280;33815;48.386;11.738;2023-04-03T07:52:52;97227.16;;;3.99;85.26
48041;BME280;33815;48.386;11.738;2023-04-03T07:55:19;97225.13;;;3.90;85.98
48041;BME280;33815;48.386;11.738;2023-04-03T07:57:44;97224.44;;;4.15;85.76
48041;BME280;33815;48.386;11.738;2023-04-03T08:00:10;97220.44;;;4.11;85.94
48041;BME280;33815;48.386;11.738;2023-04-03T08:02:37;97229.53;;;4.31;86.87
48041;BME280;33815;48.386;11.738;2023-04-03T08:05:02;97195.56;;;4.10;86.17
48041;BME280;33815;48.386;11.738;2023-04-03T08:07:27;97229.38;;;4.47;86.11
48041;BME280;33815;48.386;11.738;2023-04-03T08:09:53;97232.25;;;4.42;82.91
48041;BME280;33815;48.386;11.738;2023-04-03T08:12:18;97227.19;;;4.41;84.67
48041;BME280;33815;48.386;11.738;2023-04-03T08:14:43;97232.16;;;4.71;83.01
48041;BME280;33815;48.386;11.738;2023-04-03T08:17:09;97224.75;;;4.79;82.87
48041;BME280;33815;48.386;11.738;2023-04-03T08:19:37;97228.19;;;4.80;80.46
48041;BME280;33815;48.386;11.738;2023-04-03T08:22:03;97224.66;;;4.81;84.02
48041;BME280;33815;48.386;11.738;2023-04-03T08:24:28;97211.44;;;4.73;83.09
48041;BME280;33815;48.386;11.738;2023-04-03T08:26:54;97226.81;;;4.74;83.71
48041;BME280;33815;48.386;11.738;2023-04-03T08:29:20;97228.25;;;5.06;84.76
48041;BME280;33815;48.386;11.738;2023-04-03T08:31:46;97224.56;;;5.23;83.26
48041;BME280;33815;48.386;11.738;2023-04-03T08:34:11;97229.69;;;5.10;82.74
48041;BME280;33815;48.386;11.738;2023-04-03T08:36:38;97233.88;;;5.25;80.62
48041;BME280;33815;48.386;11.738;2023-04-03T08:39:04;97231.25;;;5.12;80.24
48041;BME280;33815;48.386;11.738;2023-04-03T08:41:38;97195.25;;;4.96;78.99
48041;BME280;33815;48.386;11.738;2023-04-03T08:47:11;97226.63;;;5.18;79.10
48041;BME280;33815;48.386;11.738;2023-04-03T08:52:11;97228.00;;;5.62;76.77
48041;BME280;33815;48.386;11.738;2023-04-03T08:54:48;97237.94;;;5.55;75.88
48041;BME280;33815;48.386;11.738;2023-04-03T08:57:15;97199.34;;;5.65;75.89
48041;BME280;33815;48.386;11.738;2023-04-03T08:59:42;97227.59;;;5.81;74.19
48041;BME280;33815;48.386;11.738;2023-04-03T09:02:31;97227.59;;;5.94;74.43
48041;BME280;33815;48.386;11.738;2023-04-03T09:04:58;97242.50;;;5.64;73.16
48041;BME280;33815;48.386;11.738;2023-04-03T09:07:32;97235.38;;;5.81;75.10
48041;BME280;33815;48.386;11.738;2023-04-03T09:09:59;97234.44;;;5.95;73.65
48041;BME280;33815;48.386;11.738;2023-04-03T09:12:37;97241.84;;;6.25;69.25
48041;BME280;33815;48.386;11.738;2023-04-03T09:15:15;97238.97;;;6.04;69.02
48041;BME280;33815;48.386;11.738;2023-04-03T09:23:28;97242.97;;;5.31;70.15
48041;BME280;33815;48.386;11.738;2023-04-03T09:26:03;97238.97;;;5.65;69.55
48041;BME280;33815;48.386;11.738;2023-04-03T09:28:33;97233.69;;;5.93;68.28
48041;BME280;33815;48.386;11.738;2023-04-03T09:31:00;97239.81;;;6.05;66.86
48041;BME280;33815;48.386;11.738;2023-04-03T09:33:26;97200.06;;;5.93;64.78
48041;BME280;33815;48.386;11.738;2023-04-03T09:35:52;97240.97;;;6.00;67.95
48041;BME280;33815;48.386;11.738;2023-04-03T09:38:20;97237.81;;;5.95;64.20
48041;BME280;33815;48.386;11.738;2023-04-03T09:41:02;97230.88;;;5.96;64.70
48041;BME280;33815;48.386;11.738;2023-04-03T09:43:31;97229.56;;;6.03;66.06
48041;BME280;33815;48.386;11.738;2023-04-03T09:46:16;97222.09;;;6.11;60.27
48041;BME280;33815;48.386;11.738;2023-04-03T09:48:50;97229.63;;;6.27;63.40
48041;BME280;33815;48.386;11.738;2023-04-03T09:51:16;97228.97;;;6.37;63.85
48041;BME280;33815;48.386;11.738;2023-04-03T09:53:44;97227.44;;;6.21;61.32
48041;BME280;33815;48.386;11.738;2023-04-03T09:58:43;97226.50;;;6.35;60.92
48041;BME280;33815;48.386;11.738;2023-04-03T10:04:16;97223.56;;;6.03;63.73
48041;BME280;33815;48.386;11.738;2023-04-03T10:06:45;97222.09;;;6.11;58.79
48041;BME280;33815;48.386;11.738;2023-04-03T10:09:18;97181.34;;;5.89;58.87
48041;BME280;33815;48.386;11.738;2023-04-03T10:14:21;97217.03;;;6.10;59.64
48041;BME280;33815;48.386;11.738;2023-04-03T10:19:58;97179.03;;;6.47;62.11
48041;BME280;33815;48.386;11.738;2023-04-03T10:25:40;97208.00;;;6.53;55.97
48041;BME280;33815;48.386;11.738;2023-04-03T10:31:18;97216.00;;;5.87;55.31
48041;BME280;33815;48.386;11.738;2023-04-03T10:36:33;97211.81;;;6.36;53.40
48041;BME280;33815;48.386;11.738;2023-04-03T10:39:12;97189.31;;;6.60;49.93
48041;BME280;33815;48.386;11.738;2023-04-03T10:41:50;97193.84;;;7.05;53.99
48041;BME280;33815;48.386;11.738;2023-04-03T10:44:36;97192.81;;;7.08;52.54
48041;BME280;33815;48.386;11.738;2023-04-03T10:47:14;97171.06;;;6.86;50.68
48041;BME280;33815;48.386;11.738;2023-04-03T10:50:02;97195.00;;;7.25;51.38
48041;BME280;33815;48.386;11.738;2023-04-03T10:52:43;97205.16;;;6.68;52.44
48041;BME280;33815;48.386;11.738;2023-04-03T10:55:33;97214.56;;;6.45;55.72
48041;BME280;33815;48.386;11.738;2023-04-03T10:58:00;97222.34;;;6.45;57.61
48041;BME280;33815;48.386;11.738;2023-04-03T11:00:37;97213.25;;;6.40;58.66
48041;BME280;33815;48.386;11.738;2023-04-03T11:03:09;97213.78;;;6.56;56.84
48041;BME280;33815;48.386;11.738;2023-04-03T11:05:51;97175.09;;;6.42;54.13
48041;BME280;33815;48.386;11.738;2023-04-03T11:08:53;97204.81;;;6.97;54.64
48041;BME280;33815;48.386;11.738;2023-04-03T11:11:24;97195.84;;;7.37;52.65
48041;BME280;33815;48.386;11.738;2023-04-03T11:13:58;97153.31;;;7.74;50.34
48041;BME280;33815;48.386;11.738;2023-04-03T11:16:29;97183.25;;;8.12;48.24
48041;BME280;33815;48.386;11.738;2023-04-03T11:19:57;97176.41;;;7.88;46.91
48041;BME280;33815;48.386;11.738;2023-04-03T11:22:41;97182.06;;;8.16;50.63
48041;BME280;33815;48.386;11.738;2023-04-03T11:27:44;97176.91;;;7.82;51.23
48041;BME280;33815;48.386;11.738;2023-04-03T11:30:33;97167.94;;;7.75;50.64
48041;BME280;33815;48.386;11.738;2023-04-03T11:33:08;97168.16;;;7.94;50.36
48041;BME280;33815;48.386;11.738;2023-04-03T11:35:44;97119.56;;;7.74;47.44
48041;BME280;33815;48.386;11.738;2023-04-03T11:38:19;97141.13;;;7.74;47.27
48041;BME280;33815;48.386;11.738;2023-04-03T11:40:47;97131.25;;;7.57;46.20
48041;BME280;33815;48.386;11.738;2023-04-03T11:43:27;97166.03;;;7.43;48.76
48041;BME280;33815;48.386;11.738;2023-04-03T11:46:05;97153.53;;;7.70;50.80
48041;BME280;33815;48.386;11.738;2023-04-03T11:51:01;97141.66;;;8.23;44.57
48041;BME280;33815;48.386;11.738;2023-04-03T11:53:30;97147.97;;;7.86;45.72
48041;BME280;33815;48.386;11.738;2023-04-03T11:56:00;97135.84;;;7.53;45.60
48041;BME280;33815;48.386;11.738;2023-04-03T11:58:33;97133.94;;;8.00;44.84
48041;BME280;33815;48.386;11.738;2023-04-03T12:01:03;97136.84;;;8.18;46.58
48041;BME280;33815;48.386;11.738;2023-04-03T12:11:15;97122.69;;;8.87;45.56
48041;BME280;33815;48.386;11.738;2023-04-03T12:16:26;97135.19;;;9.15;43.96
48041;BME280;33815;48.386;11.738;2023-04-03T12:21:21;97138.44;;;7.53;46.55
48041;BME280;33815;48.386;11.738;2023-04-03T12:29:15;97114.44;;;6.57;50.26
48041;BME280;33815;48.386;11.738;2023-04-03T12:31:54;97142.03;;;6.69;48.56
48041;BME280;33815;48.386;11.738;2023-04-03T12:40:14;97153.47;;;6.06;48.03
48041;BME280;33815;48.386;11.738;2023-04-03T12:45:52;97137.09;;;6.66;49.16
48041;BME280;33815;48.386;11.738;2023-04-03T12:48:27;97125.19;;;7.11;46.21
48041;BME280;33815;48.386;11.738;2023-04-03T12:50:54;97144.53;;;7.29;50.27
48041;BME280;33815;48.386;11.738;2023-04-03T12:53:24;97135.09;;;8.07;47.24
48041;BME280;33815;48.386;11.738;2023-04-03T12:55:58;97119.44;;;8.53;43.68
48041;BME280;33815;48.386;11.738;2023-04-03T12:58:43;97072.97;;;8.81;42.37
48041;BME280;33815;48.386;11.738;2023-04-03T13:01:16;97102.50;;;9.84;42.90
48041;BME280;33815;48.386;11.738;2023-04-03T13:03:45;97099.00;;;10.24;46.54
48041;BME280;33815;48.386;11.738;2023-04-03T13:06:42;97084.41;;;10.62;40.70
48041;BME280;33815;48.386;11.738;2023-04-03T13:11:49;97062.94;;;11.45;37.41
48041;BME280;33815;48.386;11.738;2023-04-03T13:14:19;97071.88;;;11.42;37.22
48041;BME280;33815;48.386;11.738;2023-04-03T13:17:00;97062.38;;;11.41;36.43
48041;BME280;33815;48.386;11.738;2023-04-03T13:19:28;97066.97;;;10.62;34.56
48041;BME280;33815;48.386;11.738;2023-04-03T13:21:59;97067.13;;;11.56;36.98
48041;BME280;33815;48.386;11.738;2023-04-03T13:24:26;97044.63;;;10.40;36.66
48041;BME280;33815;48.386;11.738;2023-04-03T13:26:54;97080.06;;;10.02;37.59
48041;BME280;33815;48.386;11.738;2023-04-03T13:29:24;97081.66;;;8.49;38.30
48041;BME280;33815;48.386;11.738;2023-04-03T13:31:54;97086.19;;;7.80;40.15
48041;BME280;33815;48.386;11.738;2023-04-03T13:34:21;97090.22;;;7.62;40.95
48041;BME280;33815;48.386;11.738;2023-04-03T13:41:44;97099.88;;;7.60;41.73
48041;BME280;33815;48.386;11.738;2023-04-03T13:44:17;97098.81;;;7.06;40.60
48041;BME280;33815;48.386;11.738;2023-04-03T13:46:43;97103.75;;;7.20;41.55
48041;BME280;33815;48.386;11.738;2023-04-03T13:49:38;97086.28;;;6.99;39.61
48041;BME280;33815;48.386;11.738;2023-04-03T13:54:53;97086.69;;;9.04;41.27
48041;BME280;33815;48.386;11.738;2023-04-03T13:57:20;97076.88;;;9.38;36.51
48041;BME280;33815;48.386;11.738;2023-04-03T13:59:45;97072.47;;;9.80;36.42
48041;BME280;33815;48.386;11.738;2023-04-03T14:02:13;97072.19;;;10.53;38.13
48041;BME280;33815;48.386;11.738;2023-04-03T14:04:55;97066.66;;;10.17;34.10
48041;BME280;33815;48.386;11.738;2023-04-03T14:07:24;97068.25;;;9.48;34.87
48041;BME280;33815;48.386;11.738;2023-04-03T14:09:49;97069.03;;;8.86;35.48
48041;BME280;33815;48.386;11.738;2023-04-03T14:12:21;97083.13;;;8.63;38.00
48041;BME280;33815;48.386;11.738;2023-04-03T14:14:49;97073.63;;;8.40;39.37
48041;BME280;33815;48.386;11.738;2023-04-03T14:17:17;97078.03;;;7.85;38.56
48041;BME280;33815;48.386;11.738;2023-04-03T14:19:43;97078.78;;;7.30;37.33
48041;BME280;33815;48.386;11.738;2023-04-03T14:22:18;97073.13;;;8.14;36.76